Portada
METAR-TAF:

METAR-TAF

Aeroports :

Isfahan, Iran

latitud: 32-28N, longitud: 051-43E, altitud: 1590 m

Observació

L'informe es va fer fa 20 minuts, a les 03:30 UTC
Vent 4 kt del Oest
Temperatura 19°C
Humitat 22%
Pressió 1022 hPa
Visibilitat: 2700 m
calitja

METAR: OIFM 210330Z 26004KT 2700 HZ NSC 19/M03 Q1022 A3019

Hora: 08:20 (03:50 UTC)

Pronòstic

L'informe es va fer fa 4 hores i 50 minuts, a les 23:00 UTC
Pronòstic vàlid del 21 a les 00 UTC al 22 a les 06 UTC
Vent 8 kt del Sud-Oest
Visibilitat: 8000 m
Temporalment
l' 21 a les 15 UTC al 21 a les 21 UTC
Vent 12 kt del Nord-Est

TAF: OIFM 202300Z 2100/2206 22008KT 8000 NSC TEMPO 2115/2121 05012KT

Observacions i pronòstics meteorològics de més de 4000 aeroports (METAR i TAF).

Les estacions disponibles són els punts grocs i vermells al mapa.

Posi el ratolí al punt desitjat per veure el nom de l'estació.

Feu clic per veure les observacions i els pronòstics meteorològics.

Per canviar el mapa: feu clic els botons verds amb una creu de color negre per apropar; al botó verd amb un guió per allunyar la imatge; o en les fletxes verdes per a mapes adjacents.


METAR-TAF: